createdAt,value
2022-10-23T00:01:40.638Z,16.10
2022-10-23T00:04:16.297Z,16.00
2022-10-23T00:06:44.419Z,16.00
2022-10-23T00:09:13.855Z,16.00
2022-10-23T00:11:44.764Z,16.00
2022-10-23T00:14:12.018Z,16.00
2022-10-23T00:16:39.333Z,15.90
2022-10-23T00:19:07.883Z,15.90
2022-10-23T00:21:35.095Z,15.90
2022-10-23T00:24:02.323Z,15.90
2022-10-23T00:26:31.635Z,15.90
2022-10-23T00:28:58.766Z,15.90
2022-10-23T00:31:26.274Z,15.90
2022-10-23T00:33:53.612Z,15.80
2022-10-23T00:36:21.796Z,15.80
2022-10-23T00:38:49.752Z,15.80
2022-10-23T00:41:20.691Z,15.80
2022-10-23T00:44:07.402Z,15.80
2022-10-23T00:46:39.194Z,15.80
2022-10-23T00:49:07.697Z,15.80
2022-10-23T00:51:45.635Z,15.80
2022-10-23T00:54:24.724Z,15.80
2022-10-23T00:56:59.288Z,15.80
2022-10-23T00:59:27.124Z,15.80
2022-10-23T01:01:54.561Z,15.80
2022-10-23T01:04:22.469Z,15.80
2022-10-23T01:07:08.471Z,15.80
2022-10-23T01:10:04.806Z,15.80
2022-10-23T01:12:47.014Z,15.80
2022-10-23T01:15:26.532Z,15.80
2022-10-23T01:18:12.604Z,15.80
2022-10-23T01:20:45.202Z,15.80
2022-10-23T01:23:31.173Z,15.80
2022-10-23T01:26:18.713Z,15.90
2022-10-23T01:28:55.194Z,15.90
2022-10-23T01:31:37.515Z,15.90
2022-10-23T01:34:13.035Z,15.90
2022-10-23T01:36:43.236Z,15.90
2022-10-23T01:39:20.753Z,15.90
2022-10-23T01:41:54.868Z,16.00
2022-10-23T01:45:13.314Z,16.00
2022-10-23T01:47:43.983Z,16.00
2022-10-23T01:50:14.641Z,16.00
2022-10-23T01:52:41.961Z,16.00
2022-10-23T01:55:11.893Z,16.00
2022-10-23T01:57:41.143Z,16.00
2022-10-23T02:00:14.801Z,16.00
2022-10-23T02:02:47.647Z,16.00
2022-10-23T02:05:29.009Z,16.00
2022-10-23T02:07:57.183Z,16.00
2022-10-23T02:10:32.432Z,16.00
2022-10-23T02:13:09.382Z,16.00
2022-10-23T02:15:41.422Z,16.00
2022-10-23T02:18:37.717Z,16.00
2022-10-23T02:21:12.197Z,16.00
2022-10-23T02:23:46.922Z,16.00
2022-10-23T02:26:25.377Z,16.00
2022-10-23T02:29:00.208Z,16.00
2022-10-23T02:31:27.523Z,16.00
2022-10-23T02:33:54.777Z,16.00
2022-10-23T02:36:24.300Z,16.00
2022-10-23T02:38:51.511Z,16.00
2022-10-23T02:41:52.898Z,16.10
2022-10-23T02:44:28.098Z,16.10
2022-10-23T02:47:19.649Z,16.10
2022-10-23T02:50:04.810Z,16.10
2022-10-23T02:52:50.729Z,16.10
2022-10-23T02:55:28.938Z,16.10
2022-10-23T02:58:08.902Z,16.10
2022-10-23T03:00:39.045Z,16.10
2022-10-23T03:03:16.038Z,16.10
2022-10-23T03:05:44.978Z,16.10
2022-10-23T03:08:13.882Z,16.10
2022-10-23T03:10:42.791Z,16.10
2022-10-23T03:13:10.992Z,16.10
2022-10-23T03:15:38.246Z,16.20
2022-10-23T03:18:05.462Z,16.20
2022-10-23T03:20:33.193Z,16.20
2022-10-23T03:23:00.461Z,16.20
2022-10-23T03:25:30.261Z,16.20
2022-10-23T03:27:57.508Z,16.20
2022-10-23T03:30:27.027Z,16.20
2022-10-23T03:32:54.210Z,16.20
2022-10-23T03:35:21.372Z,16.20
2022-10-23T03:37:48.612Z,16.20
2022-10-23T03:40:15.926Z,16.20
2022-10-23T03:42:43.147Z,16.20
2022-10-23T03:45:10.503Z,16.20
2022-10-23T03:47:41.410Z,16.20
2022-10-23T03:50:09.872Z,16.20
2022-10-23T03:52:37.336Z,16.20
2022-10-23T03:55:05.031Z,16.20
2022-10-23T03:57:32.903Z,16.20
2022-10-23T04:00:00.066Z,16.20
2022-10-23T04:02:27.286Z,16.20
2022-10-23T04:04:54.918Z,16.20
2022-10-23T04:07:22.140Z,16.20
2022-10-23T04:09:49.310Z,16.20
2022-10-23T04:12:18.542Z,16.20
2022-10-23T04:14:48.103Z,16.20
2022-10-23T04:17:15.581Z,16.20
2022-10-23T04:19:42.843Z,16.20
2022-10-23T04:22:12.393Z,16.20
2022-10-23T04:24:43.861Z,16.20
2022-10-23T04:27:11.458Z,16.20
2022-10-23T04:29:38.633Z,16.20
2022-10-23T04:32:07.489Z,16.20
2022-10-23T04:34:34.913Z,16.20
2022-10-23T04:37:02.042Z,16.20
2022-10-23T04:39:31.595Z,16.20
2022-10-23T04:41:58.801Z,16.20
2022-10-23T04:44:26.011Z,16.20
2022-10-23T04:46:53.250Z,16.20
2022-10-23T04:49:22.619Z,16.20
2022-10-23T04:51:52.089Z,16.20
2022-10-23T04:54:21.365Z,16.20
2022-10-23T04:56:48.609Z,16.20
2022-10-23T04:59:16.001Z,16.30
2022-10-23T05:01:43.161Z,16.30
2022-10-23T05:04:14.023Z,16.30
2022-10-23T05:06:41.186Z,16.30
2022-10-23T05:09:08.342Z,16.30
2022-10-23T05:11:35.584Z,16.30
2022-10-23T05:14:02.870Z,16.30
2022-10-23T05:16:41.794Z,16.30
2022-10-23T05:19:14.789Z,16.30
2022-10-23T05:21:42.106Z,16.30
2022-10-23T05:24:12.759Z,16.30
2022-10-23T05:26:40.068Z,16.30
2022-10-23T05:29:07.327Z,16.30
2022-10-23T05:31:35.843Z,16.30
2022-10-23T05:34:03.041Z,16.40
2022-10-23T05:36:30.808Z,16.40
2022-10-23T05:38:59.187Z,16.40
2022-10-23T05:41:26.347Z,16.40
2022-10-23T05:43:54.204Z,16.40
2022-10-23T05:46:23.150Z,16.40
2022-10-23T05:48:51.545Z,16.50
2022-10-23T05:51:22.288Z,16.50
2022-10-23T05:53:50.675Z,16.50
2022-10-23T05:56:18.543Z,16.50
2022-10-23T05:58:46.478Z,16.50
2022-10-23T06:01:14.865Z,16.50
2022-10-23T06:03:44.361Z,16.50
2022-10-23T06:06:13.595Z,16.50
2022-10-23T06:08:40.790Z,16.50
2022-10-23T06:11:15.342Z,16.50
2022-10-23T06:13:44.281Z,16.50
2022-10-23T06:16:13.309Z,16.50
2022-10-23T06:18:41.303Z,16.50
2022-10-23T06:21:08.930Z,16.50
2022-10-23T06:23:38.332Z,16.50
2022-10-23T06:26:07.142Z,16.50
2022-10-23T06:28:34.342Z,16.50
2022-10-23T06:31:08.177Z,16.50
2022-10-23T06:33:35.858Z,16.50
2022-10-23T06:36:06.107Z,16.50
2022-10-23T06:38:36.993Z,16.50
2022-10-23T06:41:14.269Z,16.50
2022-10-23T06:43:41.600Z,16.50
2022-10-23T06:46:10.004Z,16.50
2022-10-23T06:48:37.233Z,16.50
2022-10-23T06:51:07.123Z,16.50
2022-10-23T06:53:34.599Z,16.50
2022-10-23T06:56:03.969Z,16.50
2022-10-23T06:58:31.700Z,16.50
2022-10-23T07:01:09.581Z,16.50
2022-10-23T07:03:37.128Z,16.50
2022-10-23T07:06:06.901Z,16.50
2022-10-23T07:08:34.885Z,16.60
2022-10-23T07:11:10.043Z,16.60
2022-10-23T07:13:40.558Z,16.60
2022-10-23T07:16:19.648Z,16.60
2022-10-23T07:18:50.406Z,16.70
2022-10-23T07:21:17.724Z,16.70
2022-10-23T07:23:44.914Z,16.70
2022-10-23T07:26:15.240Z,16.70
2022-10-23T07:28:43.689Z,16.80
2022-10-23T07:31:11.852Z,16.80
2022-10-23T07:33:41.577Z,16.80
2022-10-23T07:36:10.464Z,16.80
2022-10-23T07:38:37.757Z,16.90
2022-10-23T07:41:11.572Z,16.90
2022-10-23T07:43:39.928Z,17.00
2022-10-23T07:46:09.737Z,17.00
2022-10-23T07:48:37.864Z,17.00
2022-10-23T07:51:10.530Z,17.00
2022-10-23T07:53:40.777Z,17.10
2022-10-23T07:56:17.536Z,17.20
2022-10-23T07:58:44.783Z,17.20
2022-10-23T08:01:19.719Z,17.20
2022-10-23T08:03:49.217Z,17.30
2022-10-23T08:06:18.811Z,17.30
2022-10-23T08:11:24.942Z,17.40
2022-10-23T08:13:55.981Z,17.40
2022-10-23T08:16:28.238Z,17.50
2022-10-23T08:18:57.810Z,17.50
2022-10-23T08:21:25.117Z,17.50
2022-10-23T08:23:56.821Z,17.60
2022-10-23T08:26:25.197Z,17.60
2022-10-23T08:28:53.108Z,17.60
2022-10-23T08:31:22.197Z,17.60
2022-10-23T08:36:27.230Z,17.70
2022-10-23T08:38:56.016Z,17.80
2022-10-23T08:41:34.168Z,17.80
2022-10-23T08:44:24.535Z,17.80
2022-10-23T08:47:14.721Z,17.80
2022-10-23T08:49:51.975Z,17.90
2022-10-23T08:52:37.807Z,17.90
2022-10-23T08:55:18.995Z,17.90
2022-10-23T08:58:05.839Z,17.90
2022-10-23T09:00:34.305Z,18.00
2022-10-23T09:03:05.040Z,18.00
2022-10-23T09:05:35.138Z,18.00
2022-10-23T09:08:26.876Z,18.00
2022-10-23T09:11:22.049Z,18.00
2022-10-23T09:14:13.909Z,18.10
2022-10-23T09:16:57.523Z,18.10
2022-10-23T09:19:27.395Z,18.10
2022-10-23T09:21:56.369Z,18.10
2022-10-23T09:24:26.020Z,18.20
2022-10-23T09:26:54.519Z,18.20
2022-10-23T09:29:31.944Z,18.20
2022-10-23T09:32:01.068Z,18.30
2022-10-23T09:34:30.402Z,18.30
2022-10-23T09:37:25.109Z,18.30
2022-10-23T09:40:49.700Z,18.30
2022-10-23T09:43:21.841Z,18.40
2022-10-23T09:46:10.489Z,18.40
2022-10-23T09:48:39.281Z,18.40
2022-10-23T09:51:21.889Z,18.40
2022-10-23T09:53:53.462Z,18.50
2022-10-23T09:56:26.479Z,18.60
2022-10-23T09:59:15.896Z,18.60
2022-10-23T10:01:54.426Z,18.70
2022-10-23T10:04:36.951Z,18.70
2022-10-23T10:07:06.706Z,18.80
2022-10-23T10:09:34.349Z,18.90
2022-10-23T10:12:32.511Z,18.90
2022-10-23T10:15:07.137Z,19.00
2022-10-23T10:18:02.866Z,19.10
2022-10-23T10:20:52.180Z,19.20
2022-10-23T10:23:41.816Z,19.20
2022-10-23T10:26:09.006Z,19.30
2022-10-23T10:28:48.502Z,19.30
2022-10-23T10:31:20.108Z,19.50
2022-10-23T10:34:24.531Z,19.50
2022-10-23T10:36:57.342Z,19.60
2022-10-23T10:39:50.575Z,19.60
2022-10-23T10:42:35.638Z,19.70
2022-10-23T10:45:19.891Z,19.80
2022-10-23T10:48:00.955Z,19.90
2022-10-23T10:51:03.099Z,20.00
2022-10-23T10:53:56.085Z,20.00
2022-10-23T10:56:27.820Z,20.10
2022-10-23T10:58:59.443Z,20.10
2022-10-23T11:01:42.921Z,20.20
2022-10-23T11:04:14.780Z,20.30
2022-10-23T11:06:46.035Z,20.30
2022-10-23T11:09:27.783Z,20.30
2022-10-23T11:11:57.802Z,20.40
2022-10-23T11:14:33.151Z,20.40
2022-10-23T11:17:13.725Z,20.50
2022-10-23T11:19:52.380Z,20.50
2022-10-23T11:22:19.532Z,20.50
2022-10-23T11:25:01.466Z,20.60
2022-10-23T11:27:37.615Z,20.60
2022-10-23T11:30:04.800Z,20.60
2022-10-23T11:33:05.585Z,20.70
2022-10-23T11:36:00.599Z,20.70
2022-10-23T11:38:35.245Z,20.80
2022-10-23T11:41:19.912Z,20.80
2022-10-23T11:44:05.656Z,20.90
2022-10-23T11:46:35.094Z,20.90
2022-10-23T11:49:06.225Z,20.90
2022-10-23T11:51:41.307Z,21.00
2022-10-23T11:54:17.273Z,21.00
2022-10-23T11:57:13.677Z,21.10
2022-10-23T11:59:54.360Z,21.10
2022-10-23T12:02:38.879Z,21.20
2022-10-23T12:05:29.682Z,21.20
2022-10-23T12:07:59.938Z,21.30
2022-10-23T12:10:31.686Z,21.30
2022-10-23T12:13:03.802Z,21.40
2022-10-23T12:15:37.273Z,21.40
2022-10-23T12:18:17.838Z,21.50
2022-10-23T12:21:01.832Z,21.50
2022-10-23T12:23:55.253Z,21.50
2022-10-23T12:27:02.316Z,21.60
2022-10-23T12:29:53.317Z,21.60
2022-10-23T12:32:44.826Z,21.70
2022-10-23T12:35:18.145Z,21.70
2022-10-23T12:38:10.362Z,21.70
2022-10-23T12:40:37.602Z,21.80
2022-10-23T12:43:26.744Z,21.80
2022-10-23T12:45:55.240Z,21.90
2022-10-23T12:48:24.593Z,21.90
2022-10-23T12:50:54.917Z,21.90
2022-10-23T12:53:27.520Z,21.90
2022-10-23T12:58:34.874Z,22.00
2022-10-23T13:01:05.652Z,22.00
2022-10-23T13:03:37.442Z,22.10
2022-10-23T13:06:05.078Z,22.10
2022-10-23T13:08:38.789Z,22.10
2022-10-23T13:11:06.797Z,22.20
2022-10-23T13:13:34.191Z,22.20
2022-10-23T13:16:12.934Z,22.30
2022-10-23T13:18:41.741Z,22.30
2022-10-23T13:21:25.282Z,22.40
2022-10-23T13:23:53.179Z,22.40
2022-10-23T13:26:45.117Z,22.40
2022-10-23T13:29:20.935Z,22.50
2022-10-23T13:31:48.821Z,22.50
2022-10-23T13:34:23.313Z,22.50
2022-10-23T13:37:23.847Z,22.50
2022-10-23T13:40:23.484Z,22.50
2022-10-23T13:42:52.675Z,22.50
2022-10-23T13:45:25.566Z,22.50
2022-10-23T13:47:53.104Z,22.50
2022-10-23T13:50:20.463Z,22.60
2022-10-23T13:52:49.831Z,22.50
2022-10-23T13:55:23.473Z,22.50
2022-10-23T13:57:52.914Z,22.50
2022-10-23T14:00:22.402Z,22.50
2022-10-23T14:02:49.599Z,22.50
2022-10-23T14:05:16.960Z,22.50
2022-10-23T14:07:44.375Z,22.50
2022-10-23T14:10:14.283Z,22.50
2022-10-23T14:12:43.047Z,22.60
2022-10-23T14:15:14.320Z,22.60
2022-10-23T14:17:41.483Z,22.60
2022-10-23T14:20:09.306Z,22.60
2022-10-23T14:22:36.819Z,22.60
2022-10-23T14:25:04.887Z,22.60
2022-10-23T14:27:34.615Z,22.60
2022-10-23T14:30:01.857Z,22.60
2022-10-23T14:32:30.284Z,22.60
2022-10-23T14:34:57.585Z,22.60
2022-10-23T14:37:27.355Z,22.60
2022-10-23T14:39:54.572Z,22.60
2022-10-23T14:42:21.782Z,22.60
2022-10-23T14:44:50.046Z,22.60
2022-10-23T14:47:19.212Z,22.60
2022-10-23T14:49:52.228Z,22.60
2022-10-23T14:52:19.394Z,22.60
2022-10-23T14:54:46.579Z,22.60
2022-10-23T14:57:16.561Z,22.50
2022-10-23T14:59:44.232Z,22.50
2022-10-23T15:02:12.015Z,22.50
2022-10-23T15:04:39.684Z,22.50
2022-10-23T15:07:06.943Z,22.50
2022-10-23T15:09:36.273Z,22.40
2022-10-23T15:12:04.771Z,22.50
2022-10-23T15:14:32.406Z,22.40
2022-10-23T15:17:02.862Z,22.40
2022-10-23T15:19:30.114Z,22.40
2022-10-23T15:21:57.280Z,22.30
2022-10-23T15:24:27.091Z,22.30
2022-10-23T15:26:54.353Z,22.30
2022-10-23T15:29:24.066Z,22.30
2022-10-23T15:31:57.681Z,22.30
2022-10-23T15:34:28.262Z,22.20
2022-10-23T15:36:58.286Z,22.20
2022-10-23T15:39:28.524Z,22.20
2022-10-23T15:41:59.511Z,22.10
2022-10-23T15:44:28.566Z,22.10
2022-10-23T15:46:58.822Z,22.10
2022-10-23T15:49:30.054Z,22.10
2022-10-23T15:51:57.642Z,22.10
2022-10-23T15:54:28.131Z,22.00
2022-10-23T15:56:58.138Z,22.00
2022-10-23T15:59:25.771Z,22.00
2022-10-23T16:01:53.230Z,22.00
2022-10-23T16:04:20.672Z,22.00
2022-10-23T16:06:50.326Z,22.00
2022-10-23T16:09:20.133Z,22.00
2022-10-23T16:11:47.340Z,22.00
2022-10-23T16:14:17.148Z,22.00
2022-10-23T16:16:44.402Z,22.00
2022-10-23T16:19:11.968Z,22.00
2022-10-23T16:21:39.530Z,21.90
2022-10-23T16:24:08.693Z,21.90
2022-10-23T16:26:36.676Z,21.90
2022-10-23T16:29:06.443Z,21.90
2022-10-23T16:31:35.534Z,21.90
2022-10-23T16:34:05.309Z,21.90
2022-10-23T16:36:32.782Z,21.90
2022-10-23T16:39:03.303Z,21.80
2022-10-23T16:41:33.025Z,21.80
2022-10-23T16:44:00.765Z,21.80
2022-10-23T16:46:30.557Z,21.70
2022-10-23T16:48:59.926Z,21.70
2022-10-23T16:51:31.558Z,21.60
2022-10-23T16:53:59.005Z,21.60
2022-10-23T16:56:33.349Z,21.60
2022-10-23T16:59:03.183Z,21.50
2022-10-23T17:01:31.927Z,21.50
2022-10-23T17:04:02.172Z,21.50
2022-10-23T17:06:32.208Z,21.50
2022-10-23T17:09:00.587Z,21.50
2022-10-23T17:11:30.269Z,21.40
2022-10-23T17:13:59.501Z,21.40
2022-10-23T17:16:47.717Z,21.30
2022-10-23T17:19:40.152Z,21.30
2022-10-23T17:22:10.663Z,21.30
2022-10-23T17:24:40.060Z,21.20
2022-10-23T17:27:07.400Z,21.20
2022-10-23T17:29:34.678Z,21.20
2022-10-23T17:32:02.048Z,21.10
2022-10-23T17:34:29.314Z,21.10
2022-10-23T17:37:01.554Z,21.00
2022-10-23T17:39:29.805Z,21.00
2022-10-23T17:41:59.352Z,21.00
2022-10-23T17:44:26.845Z,20.90
2022-10-23T17:46:55.404Z,20.90
2022-10-23T17:49:23.727Z,20.90
2022-10-23T17:51:57.846Z,20.80
2022-10-23T17:54:26.450Z,20.80
2022-10-23T17:56:53.930Z,20.80
2022-10-23T17:59:21.145Z,20.80
2022-10-23T18:01:49.435Z,20.70
2022-10-23T18:04:19.274Z,20.70
2022-10-23T18:06:49.729Z,20.70
2022-10-23T18:09:17.541Z,20.70
2022-10-23T18:11:48.766Z,20.60
2022-10-23T18:14:20.932Z,20.60
2022-10-23T18:16:52.508Z,20.60
2022-10-23T18:19:19.838Z,20.60
2022-10-23T18:21:48.170Z,20.60
2022-10-23T18:24:16.035Z,20.50
2022-10-23T18:26:44.205Z,20.50
2022-10-23T18:29:17.348Z,20.50
2022-10-23T18:31:45.746Z,20.50
2022-10-23T18:34:20.301Z,20.50
2022-10-23T18:36:48.927Z,20.50
2022-10-23T18:39:22.661Z,20.50
2022-10-23T18:41:54.036Z,20.50
2022-10-23T18:44:22.748Z,20.50
2022-10-23T18:46:51.002Z,20.60
2022-10-23T18:49:22.286Z,20.60
2022-10-23T18:51:50.179Z,20.50
2022-10-23T18:54:19.310Z,20.50
2022-10-23T18:56:46.640Z,20.50
2022-10-23T18:59:17.014Z,20.50
2022-10-23T19:01:44.751Z,20.50
2022-10-23T19:04:16.131Z,20.50
2022-10-23T19:06:44.401Z,20.40
2022-10-23T19:09:13.875Z,20.40
2022-10-23T19:11:44.194Z,20.40
2022-10-23T19:14:11.713Z,20.40
2022-10-23T19:16:49.466Z,20.30
2022-10-23T19:19:27.153Z,20.30
2022-10-23T19:21:59.791Z,20.20
2022-10-23T19:24:39.300Z,20.20
2022-10-23T19:27:07.066Z,20.20
2022-10-23T19:29:37.171Z,20.10
2022-10-23T19:32:04.711Z,20.10
2022-10-23T19:34:32.051Z,20.10
2022-10-23T19:37:01.958Z,20.00
2022-10-23T19:39:31.867Z,20.00
2022-10-23T19:42:01.551Z,20.00
2022-10-23T19:44:28.890Z,19.90
2022-10-23T19:47:00.189Z,19.90
2022-10-23T19:49:27.423Z,19.80
2022-10-23T19:51:54.637Z,19.80
2022-10-23T19:54:21.880Z,19.70
2022-10-23T19:56:51.421Z,19.60
2022-10-23T19:59:18.927Z,19.60
2022-10-23T20:01:47.961Z,19.50
2022-10-23T20:04:17.941Z,19.50
2022-10-23T20:06:45.720Z,19.40
2022-10-23T20:09:12.997Z,19.40
2022-10-23T20:11:40.700Z,19.30
2022-10-23T20:14:08.070Z,19.20
2022-10-23T20:16:37.736Z,19.20
2022-10-23T20:19:07.398Z,19.10
2022-10-23T20:21:39.811Z,19.10
2022-10-23T20:24:07.868Z,19.10
2022-10-23T20:26:35.407Z,19.10
2022-10-23T20:29:02.703Z,19.10
2022-10-23T20:31:29.865Z,19.10
2022-10-23T20:33:57.404Z,19.10
2022-10-23T20:36:35.024Z,19.10
2022-10-23T20:39:06.479Z,19.10
2022-10-23T20:41:37.364Z,19.10
2022-10-23T20:44:06.655Z,19.10
2022-10-23T20:46:39.151Z,19.10
2022-10-23T20:49:06.413Z,19.10
2022-10-23T20:51:35.735Z,19.10
2022-10-23T20:54:03.569Z,19.20
2022-10-23T20:56:33.546Z,19.20
2022-10-23T20:59:06.635Z,19.30
2022-10-23T21:01:35.128Z,19.30
2022-10-23T21:04:03.439Z,19.30
2022-10-23T21:06:45.659Z,19.30
2022-10-23T21:09:13.299Z,19.30
2022-10-23T21:11:40.673Z,19.30
2022-10-23T21:14:08.266Z,19.30
2022-10-23T21:16:40.693Z,19.30
2022-10-23T21:19:12.850Z,19.30
2022-10-23T21:21:40.297Z,19.30
2022-10-23T21:24:14.883Z,19.30
2022-10-23T21:26:45.537Z,19.40
2022-10-23T21:29:21.005Z,19.30
2022-10-23T21:31:56.134Z,19.30
2022-10-23T21:34:25.008Z,19.30
2022-10-23T21:39:43.227Z,19.30
2022-10-23T21:42:11.734Z,19.30
2022-10-23T21:44:38.964Z,19.30
2022-10-23T21:47:06.179Z,19.30
2022-10-23T21:49:33.377Z,19.30
2022-10-23T21:52:00.600Z,19.30
2022-10-23T21:54:27.902Z,19.30
2022-10-23T21:56:55.226Z,19.30
2022-10-23T21:59:29.999Z,19.30
2022-10-23T22:01:59.485Z,19.30
2022-10-23T22:04:26.882Z,19.30
2022-10-23T22:06:56.393Z,19.30
2022-10-23T22:09:24.027Z,19.20
2022-10-23T22:11:53.114Z,19.20
2022-10-23T22:14:21.136Z,19.20
2022-10-23T22:16:50.623Z,19.20
2022-10-23T22:19:19.241Z,19.20
2022-10-23T22:21:47.766Z,19.20
2022-10-23T22:24:15.973Z,19.20
2022-10-23T22:26:51.313Z,19.20
2022-10-23T22:29:22.342Z,19.20
2022-10-23T22:31:50.188Z,19.20
2022-10-23T22:34:34.885Z,19.10
2022-10-23T22:37:10.258Z,19.20
2022-10-23T22:39:37.660Z,19.10
2022-10-23T22:42:04.919Z,19.10
2022-10-23T22:44:34.453Z,19.10
2022-10-23T22:47:01.661Z,19.10
2022-10-23T22:49:28.902Z,19.10
2022-10-23T22:51:56.148Z,19.10
2022-10-23T22:54:23.361Z,19.00
2022-10-23T22:56:50.541Z,19.00
2022-10-23T22:59:17.754Z,19.00
2022-10-23T23:01:46.981Z,19.00
2022-10-23T23:07:10.836Z,19.00
2022-10-23T23:09:42.519Z,19.00
2022-10-23T23:12:11.721Z,19.00
2022-10-23T23:14:39.485Z,19.00
2022-10-23T23:17:07.702Z,19.00
2022-10-23T23:19:35.444Z,19.00
2022-10-23T23:22:02.864Z,18.90
2022-10-23T23:24:30.240Z,18.90
2022-10-23T23:26:57.576Z,18.90
2022-10-23T23:29:24.804Z,18.90
2022-10-23T23:31:52.012Z,18.90
2022-10-23T23:34:19.153Z,18.90
2022-10-23T23:36:46.425Z,18.90
2022-10-23T23:39:13.588Z,18.90
2022-10-23T23:41:45.188Z,18.90
2022-10-23T23:44:12.366Z,18.90
2022-10-23T23:46:39.509Z,18.80
2022-10-23T23:49:07.207Z,18.80
2022-10-23T23:51:35.173Z,18.90
2022-10-23T23:54:02.393Z,18.90
2022-10-23T23:56:29.735Z,18.90
2022-10-23T23:58:57.967Z,18.90
